地図

経路データ

SID SEASON NUMBER BASIN SUBBASIN NAME ISO_TIME NATURE LAT LON WMO_WIND WMO_PRES WMO_AGENCY TRACK_TYPE DIST2LAND LANDFALL IFLAG USA_AGENCY USA_ATCF_ID USA_LAT USA_LON USA_RECORD USA_STATUS USA_WIND USA_PRES USA_SSHS USA_R34_NE USA_R34_SE USA_R34_SW USA_R34_NW USA_R50_NE USA_R50_SE USA_R50_SW USA_R50_NW USA_R64_NE USA_R64_SE USA_R64_SW USA_R64_NW USA_POCI USA_ROCI USA_RMW USA_EYE TOKYO_LAT TOKYO_LON TOKYO_GRADE TOKYO_WIND TOKYO_PRES TOKYO_R50_DIR TOKYO_R50_LONG TOKYO_R50_SHORT TOKYO_R30_DIR TOKYO_R30_LONG TOKYO_R30_SHORT TOKYO_LAND CMA_LAT CMA_LON CMA_CAT CMA_WIND CMA_PRES HKO_LAT HKO_LON HKO_CAT HKO_WIND HKO_PRES NEWDELHI_LAT NEWDELHI_LON NEWDELHI_GRADE NEWDELHI_WIND NEWDELHI_PRES NEWDELHI_CI NEWDELHI_DP NEWDELHI_POCI REUNION_LAT REUNION_LON REUNION_TYPE REUNION_WIND REUNION_PRES REUNION_TNUM REUNION_CI REUNION_RMW REUNION_R34_NE REUNION_R34_SE REUNION_R34_SW REUNION_R34_NW REUNION_R50_NE REUNION_R50_SE REUNION_R50_SW REUNION_R50_NW REUNION_R64_NE REUNION_R64_SE REUNION_R64_SW REUNION_R64_NW BOM_LAT BOM_LON BOM_TYPE BOM_WIND BOM_PRES BOM_TNUM BOM_CI BOM_RMW BOM_R34_NE BOM_R34_SE BOM_R34_SW BOM_R34_NW BOM_R50_NE BOM_R50_SE BOM_R50_SW BOM_R50_NW BOM_R64_NE BOM_R64_SE BOM_R64_SW BOM_R64_NW BOM_ROCI BOM_POCI BOM_EYE BOM_POS_METHOD BOM_PRES_METHOD NADI_LAT NADI_LON NADI_CAT NADI_WIND NADI_PRES WELLINGTON_LAT WELLINGTON_LON WELLINGTON_WIND WELLINGTON_PRES DS824_LAT DS824_LON DS824_STAGE DS824_WIND DS824_PRES TD9636_LAT TD9636_LON TD9636_STAGE TD9636_WIND TD9636_PRES TD9635_LAT TD9635_LON TD9635_WIND TD9635_PRES TD9635_ROCI NEUMANN_LAT NEUMANN_LON NEUMANN_CLASS NEUMANN_WIND NEUMANN_PRES MLC_LAT MLC_LON MLC_CLASS MLC_WIND MLC_PRES USA_GUST BOM_GUST BOM_GUST_PER REUNION_GUST REUNION_GUST_PER USA_SEAHGT USA_SEARAD_NE USA_SEARAD_SE USA_SEARAD_SW USA_SEARAD_NW STORM_SPEED STORM_DIR
1980140N16116 1980 38 WP MM GEORGIA 1980-05-19 00:00:00 TS 16.3000 115.900 main 407 407 __OO__________ -1 16.9000 117.000 0 19 1002 15.7000 114.800 TD 25 1000 6 235
1980140N16116 1980 38 WP MM GEORGIA 1980-05-19 03:00:00 TS 16.1313 115.654 main 427 427 __PP__________ -1 16.6627 116.505 0 19 1002 15.6000 114.803 TD 25 1000 6 234
1980140N16116 1980 38 WP MM GEORGIA 1980-05-19 06:00:00 TS 15.9500 115.400 main 459 460 __OO__________ -1 16.4000 116.000 0 19 1002 15.5000 114.800 TD 25 1000 6 232
1980140N16116 1980 38 WP MM GEORGIA 1980-05-19 09:00:00 TS 15.7500 115.139 main 493 493 __PP__________ -1 16.1000 115.485 0 19 1001 15.4000 114.792 TD 25 1000 7 229
1980140N16116 1980 38 WP MM GEORGIA 1980-05-19 12:00:00 TS 15.4917 114.850 1002 tokyo main 516 516 OOOO_____OO___ jtwc_wp WP061980 15.5000 115.000 20 -1 15.0000 114.000 2 1002 0 0 0 15.8000 115.000 0 19 1001 15.3000 114.800 TD 25 1000 15.5000 115.000 TC 20 15.5000 115.000 0 20 7 232
1980140N16116 1980 38 WP MM GEORGIA 1980-05-19 15:00:00 TS 15.3419 114.598 main 551 551 PPPP_____PP___ WP061980 15.4026 114.700 20 -1 15.0000 114.000 2 1002 0 0 15.5575 114.540 0 19 1000 15.1925 114.835 TD 25 1000 15.4026 114.700 TC 20 15.4303 114.631 0 20 5 239
1980140N16116 1980 38 WP MM GEORGIA 1980-05-19 18:00:00 TS 15.2207 114.386 1002 tokyo main 568 544 OOOO_____OP___ jtwc_wp WP061980 15.3000 114.400 20 -1 15.0000 114.000 2 1002 0 0 0 15.3000 114.200 0 19 1000 15.1000 114.900 TD 25 1000 15.3000 114.400 TC 20 15.3381 114.309 0 20 4 235
1980140N16116 1980 38 WP MM GEORGIA 1980-05-19 21:00:00 TS 15.0874 114.221 main 544 539 PPPP_____PP___ WP061980 15.1800 114.125 20 -1 15.0000 114.000 2 1002 0 0 14.9199 114.003 0 21 1000 15.0425 114.993 TD 25 1000 15.1800 114.125 TC 20 15.2019 114.083 0 20 3 215
1980140N16116 1980 38 WP MM GEORGIA 1980-05-20 00:00:00 TS 14.9333 114.183 1002 tokyo main 539 537 OOOO_____OO___ jtwc_wp WP061980 15.0000 114.000 20 -1 15.0000 114.000 2 1002 0 0 0 14.6000 114.000 1 23 1000 15.0000 115.100 TD 25 1000 15.0000 114.000 TC 20 15.0000 114.000 1 20 3 169
1980140N16116 1980 38 WP MM GEORGIA 1980-05-20 03:00:00 TS 14.7695 114.277 main 548 546 PPPP_____PP___ WP061980 14.7075 114.125 20 -1 15.0375 113.962 2 1002 0 0 14.4975 114.175 1 23 1000 14.9425 115.185 TD 27 1000 14.7075 114.125 TC 20 14.7249 114.091 1 21 4 138
1980140N16116 1980 38 WP MM GEORGIA 1980-05-20 06:00:00 TS 14.6042 114.487 1002 tokyo main 566 562 OOOO_____OP___ jtwc_wp WP061980 14.4000 114.400 20 -1 15.0000 114.000 2 1002 0 0 0 14.5000 114.500 1 23 1000 14.9000 115.300 TD 30 1000 14.4000 114.400 TC 20 14.4249 114.322 1 22 6 125
1980140N16116 1980 38 WP MM GEORGIA 1980-05-20 09:00:00 TS 14.4346 114.767 main 555 529 PPPP_____PP___ WP061980 14.1624 114.670 22 -1 14.7651 114.213 2 1002 0 0 14.4702 114.908 1 26 1000 14.8850 115.500 TD 30 1000 14.1624 114.670 TC 22 14.1625 114.641 1 23 6 116
1980140N16116 1980 38 WP MM GEORGIA 1980-05-20 12:00:00 TS 14.3167 115.083 1002 tokyo main 529 499 OOOO_____OO___ jtwc_wp WP061980 14.0000 115.000 25 -1 14.5000 114.500 2 1002 0 0 0 14.5000 115.300 1 29 1000 14.9000 115.700 TD 30 1000 14.0000 115.000 TC 25 14.0000 115.000 1 25 6 105
1980140N16116 1980 38 WP MM GEORGIA 1980-05-20 15:00:00 TS 14.2712 115.390 main 499 468 PPPP_____PP___ WP061980 13.8751 115.400 25 -1 14.3326 114.787 2 1001 0 0 14.6124 115.545 1 29 1000 14.9350 115.815 TD 30 1000 13.8751 115.400 TC 25 13.9974 115.389 1 25 6 88
1980140N16116 1980 38 WP MM GEORGIA 1980-05-20 18:00:00 TS 14.3334 115.666 1000 tokyo main 468 441 OOOO_____OP___ jtwc_wp WP061980 13.9000 115.800 25 -1 14.3000 115.000 2 1000 0 0 0 14.8000 115.700 1 29 1000 15.0000 115.900 TD 30 1000 13.9000 115.800 TC 25 14.1007 115.796 1 25 6 62
1980140N16116 1980 38 WP MM GEORGIA 1980-05-20 21:00:00 TS 14.5298 115.893 main 441 418 PPPP_____PP___ WP061980 14.1550 116.160 25 -1 14.4625 115.037 2 1000 0 0 15.0425 115.845 1 29 1000 15.0850 116.000 TD 30 1000 14.1550 116.160 TC 25 14.2786 116.155 1 25 6 38
1980140N16116 1980 38 WP MM GEORGIA 1980-05-21 00:00:00 TS 14.7833 116.033 1000 tokyo main 418 401 OOOO_____OO___ jtwc_wp WP061980 14.5000 116.400 25 -1 14.7000 115.000 2 1000 0 0 0 15.3000 115.900 1 29 1000 15.2000 116.100 TD 30 1000 14.5000 116.400 TC 25 14.5000 116.400 1 25 5 21
1980140N16116 1980 38 WP MM GEORGIA 1980-05-21 03:00:00 TS 14.9867 116.075 main 401 398 PPPP_____PP___ WP061980 14.7574 116.468 27 -1 14.8425 115.015 2 1000 0 0 15.5225 115.823 1 29 1000 15.3350 116.215 TD 30 1000 14.7574 116.468 TC 27 14.7056 116.464 1 26 4 0
1980140N16116 1980 38 WP MM GEORGIA 1980-05-21 06:00:00 TS 15.1912 116.035 1000 tokyo main 406 401 OOOO_____OP___ jtwc_wp WP061980 15.0000 116.400 30 -1 15.0000 115.000 2 1000 0 0 0 15.7000 115.700 1 29 1000 15.5000 116.300 TD 30 1000 15.0000 116.400 TC 30 14.9471 116.408 1 27 4 344
1980140N16116 1980 38 WP MM GEORGIA 1980-05-21 09:00:00 TS 15.4046 115.953 main 401 401 PPPP_____PP___ WP061980 15.2350 116.273 30 -1 15.2350 114.915 2 1000 0 0 15.8075 115.657 1 29 999 15.7000 116.330 TD 30 999 15.2350 116.273 TC 30 15.2151 116.273 1 28 5 336
1980140N16116 1980 38 WP MM GEORGIA 1980-05-21 12:00:00 TS 15.6333 115.833 1000 tokyo main 419 417 OOOO_____OO___ jtwc_wp WP061980 15.5000 116.100 30 -1 15.5000 114.800 2 1000 0 0 0 15.9000 115.600 1 29 998 15.9000 116.300 TD 30 998 15.5000 116.100 TC 30 15.5000 116.100 1 30 5 334
1980140N16116 1980 38 WP MM GEORGIA 1980-05-21 15:00:00 TS 15.8861 115.708 main 427 427 PPPP_____PP___ WP061980 15.8500 115.957 35 0 15.7500 114.693 2 1000 0 0 16.0275 115.465 1 33 996 16.0575 116.230 TD 30 998 15.8500 115.957 TC 35 15.7817 115.946 1 33 6 333
1980140N16116 1980 38 WP MM GEORGIA 1980-05-21 18:00:00 TS 16.1463 115.561 1000 tokyo main 438 438 OOOO_____OP___ jtwc_wp WP061980 16.2000 115.800 40 0 16.0000 114.600 2 1000 0 0 0 16.2000 115.300 2 38 994 16.2000 116.100 TD 30 998 16.2000 115.800 TC 40 16.0776 115.765 1 37 6 331
1980140N16116 1980 38 WP MM GEORGIA 1980-05-21 21:00:00 TS 16.3778 115.420 main 461 461 PPPP_____PP___ WP061980 16.4498 115.652 42 0 16.2350 114.535 2 998 0 0 16.4200 115.157 2 38 992 16.3274 115.945 TD 35 998 16.4498 115.652 TC 42 16.3848 115.577 1 41 6 327
1980140N16116 1980 38 WP MM GEORGIA 1980-05-22 00:00:00 TS 16.6333 115.233 996 tokyo main 485 485 OOOO_____OO___ jtwc_wp WP061980 16.7000 115.400 45 0 16.5000 114.500 2 996 0 0 0 16.7000 115.000 2 38 990 16.5000 115.700 TS 40 998 16.7000 115.400 TC 45 16.7000 115.400 2 45 8 320
1980140N16116 1980 38 WP MM GEORGIA 1980-05-22 03:00:00 TS 16.9503 114.915 main 504 467 PPPP_____PP___ WP061980 17.0430 114.833 47 0 16.8275 114.492 2 994 0 0 17.0276 114.778 2 43 988 16.7552 115.300 TS 42 996 17.0430 114.833 TC 47 17.0056 115.252 2 46 9 320
1980140N16116 1980 38 WP MM GEORGIA 1980-05-22 06:00:00 TS 17.3033 114.653 992 tokyo main 467 440 OOOO_____OP___ jtwc_wp WP061980 17.4000 114.400 50 0 17.2000 114.500 2 992 0 0 0 17.4000 114.600 3 48 986 17.1000 114.900 TS 45 995 17.4000 114.400 TC 50 17.3200 115.120 2 47 8 340
1980140N16116 1980 38 WP MM GEORGIA 1980-05-22 09:00:00 TS 17.6616 114.650 main 434 428 PPPP_____PP___ WP061980 17.6926 114.589 50 0 17.5925 114.500 2 988 0 0 17.7925 114.562 3 48 987 17.5499 114.655 TS 45 992 17.6926 114.589 TC 50 17.6494 115.002 2 48 7 4
1980140N16116 1980 38 WP MM GEORGIA 1980-05-22 12:00:00 TS 18.0333 114.717 45 985 tokyo main 428 411 OOOO_____OO___ jtwc_wp WP061980 18.0000 114.900 50 0 18.0000 114.500 3 45 985 0 2 250 100 0 18.2000 114.600 3 48 988 18.0000 114.500 TS 45 990 18.0000 114.900 TC 50 18.0000 114.900 2 50 7 1
1980140N16116 1980 38 WP MM GEORGIA 1980-05-22 15:00:00 TS 18.4058 114.655 main 411 384 PPPP_____PP___ WP061980 18.3850 114.845 50 0 18.4000 114.500 3 45 985 0 2 250 100 18.6150 114.635 3 48 988 18.3000 114.355 TS 45 990 18.3850 114.845 TC 50 18.3499 114.751 2 51 8 351
1980140N16116 1980 38 WP MM GEORGIA 1980-05-22 18:00:00 TS 18.7875 114.587 45 985 tokyo main 384 354 OOOO_____OP___ jtwc_wp WP061980 18.8000 114.700 50 0 18.8000 114.500 3 45 985 0 2 250 100 0 19.0000 114.700 3 48 988 18.6000 114.300 TS 45 990 18.8000 114.700 TC 50 18.7248 114.624 2 52 8 353
1980140N16116 1980 38 WP MM GEORGIA 1980-05-22 21:00:00 TS 19.1612 114.559 main 344 303 PPPP_____PP___ WP061980 19.1699 114.590 52 0 19.1850 114.470 3 47 982 0 2 250 100 19.2850 114.793 3 48 988 19.0200 114.348 TS 45 990 19.1699 114.590 TC 52 19.1373 114.561 2 53 8 2
1980140N16116 1980 38 WP MM GEORGIA 1980-05-23 00:00:00 TS 19.5833 114.617 50 980 tokyo main 303 251 OOOO_____OO___ jtwc_wp WP061980 19.6000 114.600 55 0 19.6000 114.500 4 50 980 0 2 250 100 0 19.6000 114.900 3 48 988 19.5000 114.500 TS 45 990 19.6000 114.600 TC 55 19.6000 114.600 2 55 10 14
1980140N16116 1980 38 WP MM GEORGIA 1980-05-23 03:00:00 TS 20.1094 114.812 main 251 203 PPPP_____PP___ WP061980 20.1776 114.847 55 0 20.0925 114.670 4 50 980 0 2 250 100 20.0624 114.970 3 48 986 19.9925 114.727 TS 50 990 20.1776 114.847 TC 55 20.1536 114.810 2 55 12 22
1980140N16116 1980 38 WP MM GEORGIA 1980-05-23 06:00:00 TS 20.6751 115.087 50 980 tokyo main 197 151 OOOO_____OP___ jtwc_wp WP061980 20.8000 115.200 55 0 20.6000 114.900 4 50 980 0 2 250 100 0 20.6000 115.100 3 48 985 20.5000 115.000 STS 55 990 20.8000 115.200 TC 55 20.7508 115.122 2 55 12 25
1980140N16116 1980 38 WP MM GEORGIA 1980-05-23 09:00:00 TS 21.2254 115.370 main 154 111 PPPP_____PP___ WP061980 21.3800 115.515 55 0 21.0574 115.085 4 52 980 0 2 225 100 21.1801 115.385 3 48 985 21.0075 115.250 STS 55 990 21.3800 115.515 TC 55 21.3475 115.473 2 55 12 26
1980140N16116 1980 38 WP MM GEORGIA 1980-05-23 12:00:00 TS 21.7333 115.650 55 980 tokyo main 112 67 OOOO_____OO___ jtwc_wp WP061980 21.9000 115.800 55 0 21.5000 115.300 4 55 980 9 40 40 2 200 100 0 21.7000 115.700 3 48 985 21.5000 115.500 STS 55 990 21.9000 115.800 TC 55 21.9000 115.800 2 55 10 27
1980140N16116 1980 38 WP MM GEORGIA 1980-05-23 15:00:00 TS 22.1466 115.879 main 67 30 PPPP_____PP___ WP061980 22.3224 116.023 55 0 21.9426 115.593 4 55 980 9 40 40 2 200 100 21.9849 115.916 3 48 985 21.9500 115.750 STS 50 990 22.3224 116.023 TC 55 22.3576 115.968 2 52 9 26
1980140N16116 1980 38 WP MM GEORGIA 1980-05-23 18:00:00 TS 22.5444 116.085 55 980 tokyo main 33 0 OOOO_____OP___ jtwc_wp WP061980 22.7000 116.200 55 0 22.4000 115.900 4 55 980 9 40 40 2 200 100 0 22.3000 116.100 3 48 985 22.4000 116.000 TS 45 990 22.7000 116.200 TC 55 22.7662 116.108 2 50 9 22
1980140N16116 1980 38 WP MM GEORGIA 1980-05-23 21:00:00 TS 23.0126 116.255 main 0 0 PPPP_____PP___ WP061980 23.0997 116.313 50 0 22.8922 116.128 4 50 985 9 2 200 150 22.9347 116.255 3 43 986 22.9075 116.250 TS 45 990 23.0997 116.313 TC 50 23.1418 116.268 2 47 10 21
1980140N16116 1980 38 WP MM GEORGIA 1980-05-24 00:00:00 TS 23.4833 116.483 45 990 tokyo main 0 0 OOOO_____OO___ jtwc_wp WP061980 23.5000 116.500 45 0 23.4000 116.400 3 45 990 0 9 200 200 0 23.6000 116.500 2 38 988 23.4000 116.500 TS 45 990 23.5000 116.500 TC 45 23.5000 116.500 2 45 11 32
1980140N16116 1980 38 WP MM GEORGIA 1980-05-24 03:00:00 TS 23.9023 116.856 main 0 0 PPPP_____PP___ WP061980 23.9152 116.905 45 0 23.8850 116.805 3 993 0 9 24.0377 116.955 2 38 988 23.8073 116.728 TS 45 992 23.9152 116.905 TC 45 23.8536 116.840 2 41 11 42
1980140N16116 1980 38 WP MM GEORGIA 1980-05-24 06:00:00 TS 24.3055 117.306 996 tokyo main 0 0 OOOO_____OP___ jtwc_wp WP061980 24.3000 117.400 45 0 24.4000 117.300 2 996 0 0 0 24.4000 117.500 2 38 988 24.2000 117.000 TS 45 995 24.3000 117.400 TC 45 24.2049 117.274 2 37 12 45
1980140N16116 1980 38 WP MM GEORGIA 1980-05-24 09:00:00 TS 24.7254 117.770 main 0 0 PPPP_____PP___ WP061980 24.6201 117.865 37 0 24.9700 117.835 2 998 0 0 24.7701 118.030 2 33 993 24.6273 117.348 TS 40 997 24.6201 117.865 TC 37 24.5536 117.770 2 33 13 43
1980140N16116 1980 38 WP MM GEORGIA 1980-05-24 12:00:00 TS 25.2308 118.262 1000 tokyo main 0 0 OOOO_____OO___ jtwc_wp WP061980 24.9000 118.300 30 -1 25.6000 118.400 2 1000 0 0 0 25.2000 118.500 1 29 998 25.1000 117.800 TS 35 1000 24.9000 118.300 TC 30 24.9000 118.300 1 30 15 36
1980140N16116 1980 38 WP MM GEORGIA 1980-05-24 15:00:00 TS 25.9680 118.762 main 0 0 _PPP__________ WP061980 -1 26.2395 118.922 2 1000 0 0 25.7599 118.840 1 26 998 25.6332 118.366 TS 32 1001 TC 1 18 33
1980140N16116 1980 38 WP MM GEORGIA 1980-05-24 18:00:00 TS 26.7200 119.320 1000 tokyo main 0 0 _OOO__________ -1 27.0000 119.500 2 1000 0 0 0 26.4000 119.100 1 23 998 26.2000 119.000 TD 30 1002 1 24 33
1980140N16116 1980 38 WP MM GEORGIA 1980-05-24 21:00:00 TS 27.9462 120.206 main 0 0 _P____________ -1 27.9462 120.206 2 1001 0 0 1 TD 1 27 33
1980140N16116 1980 38 WP MM GEORGIA 1980-05-25 00:00:00 TS 29.0000 121.000 1002 tokyo main 0 _O____________ -1 29.0000 121.000 2 1002 0 0 0 25 33

デジタル台風データ・検索

IBTrACS Databaseについて

本データベースは、米国NOAAが公開する1842年以降の世界の熱帯低気圧のベストトラックデータアーカイブInternational Best Track Archive for Climate Stewardship (IBTrACS)を、ウェブで閲覧しやすい形式に変換したものです。

最終更新日:2021-10-08